Time;durP1;ratioP1;P1;durP2;ratioP2;P2;SDS_P1;SDS_P2;PMS_P1;PMS_P2;Temp;Humidity;BMP_temperature;BMP_pressure;BME280_temperature;BME280_humidity;BME280_pressure;Samples;Min_cycle;Max_cycle;Signal;HPM_P1;HPM_P2
2022/11/24 00:00:51;;;;;;;;;;;;;;;;;;4991933;28;1173;-47
2022/11/24 00:03:21;;;;;;;;;;;;;;;;;;4991768;28;1930;-49
2022/11/24 00:05:48;;;;;;;;;;;;;;;;;;4991975;28;1025;-48
2022/11/24 00:08:15;;;;;;;;;;;;;;;;;;4991894;28;1381;-48
2022/11/24 00:10:43;;;;;;;;;;;;;;;;;;4991906;28;1066;-47
2022/11/24 00:13:10;;;;;;;;;;;;;;;;;;4992043;28;1206;-47
2022/11/24 00:15:38;;;;;;;;;;;;;;;;;;4991767;28;1203;-48
2022/11/24 00:18:05;;;;;;;;;;;;;;;;;;4997661;28;1049;-47
2022/11/24 00:20:33;;;;;;;;;;;;;;;;;;5026511;28;1330;-47
2022/11/24 00:23:00;;;;;;;;;;;;;;;;;;5011226;28;1934;-50
2022/11/24 00:25:28;;;;;;;;;;;;;;;;;;5015271;28;1043;-49
2022/11/24 00:27:55;;;;;;;;;;;;;;;;;;5015037;28;925;-50
2022/11/24 00:30:22;;;;;;;;;;;;;;;;;;5015211;28;1059;-47
2022/11/24 00:32:51;;;;;;;;;;;;;;;;;;5015051;28;1108;-48
2022/11/24 00:35:19;;;;;;;;;;;;;;;;;;5014989;28;1215;-50
2022/11/24 00:37:47;;;;;;;;;;;;;;;;;;5014920;28;925;-51
2022/11/24 00:40:14;;;;;;;;;;;;;;;;;;5029938;28;1473;-52
2022/11/24 00:42:42;;;;;;;;;;;;;;;;;;5014978;28;2011;-48
2022/11/24 00:45:09;;;;;;;;;;;;;;;;;;5014993;28;1169;-48
2022/11/24 00:47:40;;;;;;;;;;;;;;;;;;5014783;28;1178;-47
2022/11/24 00:50:07;;;;;;;;;;;;;;;;;;5030019;28;1253;-48
2022/11/24 00:52:35;;;;;;;;;;;;;;;;;;5014603;28;1012;-48
2022/11/24 00:55:03;;;;;;;;;;;;;;;;;;5014553;28;1368;-46
2022/11/24 00:57:33;;;;;;;;;;;;;;;;;;5014445;28;1073;-52
2022/11/24 01:00:01;;;;;;;;;;;;;;;;;;5014755;28;1259;-47
2022/11/24 01:02:29;;;;;;;;;;;;;;;;;;5014429;28;1954;-48
2022/11/24 01:04:57;;;;;;;;;;;;;;;;;;5014624;28;1026;-49
2022/11/24 01:07:24;;;;;;;;;;;;;;;;;;5014400;28;1195;-49
2022/11/24 01:09:52;;;;;;;;;;;;;;;;;;5014518;28;1154;-49
2022/11/24 01:12:19;;;;;;;;;;;;;;;;;;5014412;28;956;-46
2022/11/24 01:14:46;;;;;;;;;;;;;;;;;;5014559;28;1614;-48
2022/11/24 01:17:13;;;;;;;;;;;;;;;;;;5014583;28;1014;-48
2022/11/24 01:19:40;;;;;;;;;;;;;;;;;;4995486;28;1172;-47
2022/11/24 01:22:07;;;;;;;;;;;;;;;;;;4994413;28;1949;-48
2022/11/24 01:24:35;;;;;;;;;;;;;;;;;;4994617;28;1060;-48
2022/11/24 01:27:02;;;;;;;;;;;;;;;;;;4994433;28;1656;-50
2022/11/24 01:29:29;;;;;;;;;;;;;;;;;;4994403;28;1157;-50
2022/11/24 01:31:56;;;;;;;;;;;;;;;;;;4994364;28;1128;-46
2022/11/24 01:34:24;;;;;;;;;;;;;;;;;;4994005;28;1216;-48
2022/11/24 01:36:51;;;;;;;;;;;;;;;;;;4994396;28;1093;-48
2022/11/24 01:39:18;;;;;;;;;;;;;;;;;;4994283;28;999;-49
2022/11/24 01:41:45;;;;;;;;;;;;;;;;;;4994657;28;975;-50
2022/11/24 01:44:19;;;;;;;;;;;;;;;;;;5008982;28;1914;-50
2022/11/24 01:46:48;;;;;;;;;;;;;;;;;;5013883;28;984;-51
2022/11/24 01:49:25;;;;;;;;;;;;;;;;;;5013609;28;917;-50
2022/11/24 01:52:05;;;;;;;;;;;;;;;;;;5013713;28;968;-51
2022/11/24 01:54:34;;;;;;;;;;;;;;;;;;5013519;28;1201;-50
2022/11/24 01:57:08;;;;;;;;;;;;;;;;;;5013502;28;1090;-48
2022/11/24 01:59:35;;;;;;;;;;;;;;;;;;5013449;28;1152;-48
2022/11/24 02:02:04;;;;;;;;;;;;;;;;;;5013356;28;1088;-46
2022/11/24 02:04:32;;;;;;;;;;;;;;;;;;5013224;28;1916;-51
2022/11/24 02:07:00;;;;;;;;;;;;;;;;;;5013569;28;1018;-48
2022/11/24 02:09:50;;;;;;;;;;;;;;;;;;5013355;28;1204;-47
2022/11/24 02:12:17;;;;;;;;;;;;;;;;;;5010762;28;1736;-48
2022/11/24 02:14:44;;;;;;;;;;;;;;;;;;5013139;28;1366;-47
2022/11/24 02:17:12;;;;;;;;;;;;;;;;;;5013360;28;1165;-50
2022/11/24 02:19:39;;;;;;;;;;;;;;;;;;4994664;28;1136;-45
2022/11/24 02:22:17;;;;;;;;;;;;;;;;;;4993382;28;1072;-48
2022/11/24 02:24:52;;;;;;;;;;;;;;;;;;4993157;28;1916;-48
2022/11/24 02:27:20;;;;;;;;;;;;;;;;;;4993372;28;1243;-49
2022/11/24 02:29:47;;;;;;;;;;;;;;;;;;4993469;28;918;-47
2022/11/24 02:32:15;;;;;;;;;;;;;;;;;;5008035;28;1044;-50
2022/11/24 02:34:42;;;;;;;;;;;;;;;;;;4993077;28;1195;-47
2022/11/24 02:37:09;;;;;;;;;;;;;;;;;;4993260;28;1007;-47
2022/11/24 02:39:36;;;;;;;;;;;;;;;;;;4993449;28;1108;-51
2022/11/24 02:42:05;;;;;;;;;;;;;;;;;;4993091;28;1109;-47
2022/11/24 02:44:35;;;;;;;;;;;;;;;;;;4992926;28;1912;-49
2022/11/24 02:47:07;;;;;;;;;;;;;;;;;;4992272;28;1068;-48
2022/11/24 02:49:34;;;;;;;;;;;;;;;;;;4992739;28;980;-48
2022/11/24 02:52:02;;;;;;;;;;;;;;;;;;4993117;28;1099;-48
2022/11/24 02:54:29;;;;;;;;;;;;;;;;;;4992730;28;1171;-50
2022/11/24 02:56:56;;;;;;;;;;;;;;;;;;4993074;28;1221;-49
2022/11/24 02:59:23;;;;;;;;;;;;;;;;;;4993015;28;1696;-47
2022/11/24 03:01:50;;;;;;;;;;;;;;;;;;4992858;28;1119;-50
2022/11/24 03:04:18;;;;;;;;;;;;;;;;;;4992703;28;1981;-47
2022/11/24 03:06:45;;;;;;;;;;;;;;;;;;4992879;28;1126;-47
2022/11/24 03:09:12;;;;;;;;;;;;;;;;;;4992809;28;1317;-48
2022/11/24 03:11:39;;;;;;;;;;;;;;;;;;4992580;28;920;-49
2022/11/24 03:14:07;;;;;;;;;;;;;;;;;;4992447;28;1119;-50
2022/11/24 03:16:34;;;;;;;;;;;;;;;;;;4992365;28;968;-47
2022/11/24 03:19:01;;;;;;;;;;;;;;;;;;5005676;28;1195;-49
2022/11/24 03:21:28;;;;;;;;;;;;;;;;;;5012048;28;1072;-49
2022/11/24 03:23:56;;;;;;;;;;;;;;;;;;5011826;28;1976;-47
2022/11/24 03:26:24;;;;;;;;;;;;;;;;;;5012271;28;1364;-49
2022/11/24 03:28:55;;;;;;;;;;;;;;;;;;5011913;28;1005;-48
2022/11/24 03:31:22;;;;;;;;;;;;;;;;;;5011834;28;1179;-48
2022/11/24 03:33:49;;;;;;;;;;;;;;;;;;5027072;28;2450;-50
2022/11/24 03:36:17;;;;;;;;;;;;;;;;;;5011716;28;1060;-49
2022/11/24 03:38:44;;;;;;;;;;;;;;;;;;5011870;28;1010;-52
2022/11/24 03:41:11;;;;;;;;;;;;;;;;;;4995950;28;968;-41
2022/11/24 03:43:38;;;;;;;;;;;;;;;;;;4991995;28;1980;-49
2022/11/24 03:46:10;;;;;;;;;;;;;;;;;;4992044;28;1161;-48
2022/11/24 03:48:37;;;;;;;;;;;;;;;;;;4992020;28;918;-51
2022/11/24 03:51:04;;;;;;;;;;;;;;;;;;4992080;28;1014;-47
2022/11/24 03:53:32;;;;;;;;;;;;;;;;;;4992028;28;1102;-49
2022/11/24 03:56:00;;;;;;;;;;;;;;;;;;4991835;28;1165;-47
2022/11/24 03:58:28;;;;;;;;;;;;;;;;;;4992071;28;1241;-47
2022/11/24 04:00:55;;;;;;;;;;;;;;;;;;4991989;28;1277;-46
2022/11/24 04:03:23;;;;;;;;;;;;;;;;;;4991799;28;1915;-47
2022/11/24 04:05:50;;;;;;;;;;;;;;;;;;4991889;28;1128;-47
2022/11/24 04:08:18;;;;;;;;;;;;;;;;;;4991683;28;1077;-48
2022/11/24 04:10:48;;;;;;;;;;;;;;;;;;4991514;28;1005;-47
2022/11/24 04:13:16;;;;;;;;;;;;;;;;;;4991904;28;1082;-47
2022/11/24 04:15:43;;;;;;;;;;;;;;;;;;4991906;28;1377;-46
2022/11/24 04:18:11;;;;;;;;;;;;;;;;;;4998216;28;1157;-47
2022/11/24 04:20:39;;;;;;;;;;;;;;;;;;5011491;28;1321;-46
2022/11/24 04:23:06;;;;;;;;;;;;;;;;;;5011022;28;1988;-51
2022/11/24 04:25:33;;;;;;;;;;;;;;;;;;5006882;28;1922;-49
2022/11/24 04:28:00;;;;;;;;;;;;;;;;;;4991619;28;1002;-45
2022/11/24 04:30:28;;;;;;;;;;;;;;;;;;4991960;28;1093;-45
2022/11/24 04:32:56;;;;;;;;;;;;;;;;;;4991889;28;1088;-45
2022/11/24 04:35:23;;;;;;;;;;;;;;;;;;4991496;28;1379;-47
2022/11/24 04:37:50;;;;;;;;;;;;;;;;;;4991585;28;1178;-47
2022/11/24 04:40:18;;;;;;;;;;;;;;;;;;4991556;28;1362;-45
2022/11/24 04:42:51;;;;;;;;;;;;;;;;;;4991644;28;1067;-48
2022/11/24 04:45:18;;;;;;;;;;;;;;;;;;4991383;28;1977;-46
2022/11/24 04:47:45;;;;;;;;;;;;;;;;;;4991649;28;1077;-47
2022/11/24 04:50:12;;;;;;;;;;;;;;;;;;4991353;28;911;-50
2022/11/24 04:52:39;;;;;;;;;;;;;;;;;;4991608;28;956;-51
2022/11/24 04:55:07;;;;;;;;;;;;;;;;;;4991420;28;1141;-46
2022/11/24 04:57:34;;;;;;;;;;;;;;;;;;4991407;28;1325;-45
2022/11/24 05:00:01;;;;;;;;;;;;;;;;;;4991652;28;1179;-47
2022/11/24 05:02:28;;;;;;;;;;;;;;;;;;4991646;28;965;-48
2022/11/24 05:04:55;;;;;;;;;;;;;;;;;;4991413;28;1903;-48
2022/11/24 05:07:22;;;;;;;;;;;;;;;;;;4991257;28;1152;-51
2022/11/24 05:12:42;;;;;;;;;;;;;;;;;;4986446;28;1198;-48
2022/11/24 05:15:15;;;;;;;;;;;;;;;;;;4994485;28;1574;-48
2022/11/24 05:17:42;;;;;;;;;;;;;;;;;;4997417;28;1372;-50
2022/11/24 05:20:10;;;;;;;;;;;;;;;;;;5014184;28;1281;-45
2022/11/24 05:22:36;;;;;;;;;;;;;;;;;;5014280;28;944;-49
2022/11/24 05:25:04;;;;;;;;;;;;;;;;;;5013889;28;1910;-45
2022/11/24 05:27:31;;;;;;;;;;;;;;;;;;5014432;28;1308;-46
2022/11/24 05:29:58;;;;;;;;;;;;;;;;;;5014207;28;1339;-43
2022/11/24 05:32:25;;;;;;;;;;;;;;;;;;5013983;28;1025;-48
2022/11/24 05:34:53;;;;;;;;;;;;;;;;;;5014020;28;1280;-48
2022/11/24 05:37:20;;;;;;;;;;;;;;;;;;5013828;28;1132;-46
2022/11/24 05:39:47;;;;;;;;;;;;;;;;;;5013902;28;1006;-47
2022/11/24 05:45:00;;;;;;;;;;;;;;;;;;5014013;28;1915;-45
2022/11/24 05:47:27;;;;;;;;;;;;;;;;;;5013665;28;1201;-48
2022/11/24 05:49:54;;;;;;;;;;;;;;;;;;5014055;28;1194;-45
2022/11/24 05:52:21;;;;;;;;;;;;;;;;;;5013305;28;946;-43
2022/11/24 05:54:48;;;;;;;;;;;;;;;;;;5013523;28;969;-48
2022/11/24 05:57:16;;;;;;;;;;;;;;;;;;5013548;28;1121;-48
2022/11/24 05:59:43;;;;;;;;;;;;;;;;;;5013672;28;925;-46
2022/11/24 06:02:10;;;;;;;;;;;;;;;;;;5013547;28;1144;-46
2022/11/24 06:04:38;;;;;;;;;;;;;;;;;;5013298;28;1985;-47
2022/11/24 06:07:10;;;;;;;;;;;;;;;;;;5013682;28;1207;-47
2022/11/24 06:09:37;;;;;;;;;;;;;;;;;;5028591;28;1150;-47
2022/11/24 06:12:08;;;;;;;;;;;;;;;;;;5013396;28;1005;-50
2022/11/24 06:14:36;;;;;;;;;;;;;;;;;;5013425;28;961;-45
2022/11/24 06:17:04;;;;;;;;;;;;;;;;;;5028509;28;1448;-47
2022/11/24 06:19:32;;;;;;;;;;;;;;;;;;4995611;28;1180;-47
2022/11/24 06:22:03;;;;;;;;;;;;;;;;;;4992544;28;942;-46
2022/11/24 06:24:30;;;;;;;;;;;;;;;;;;4993143;28;1920;-51
2022/11/24 06:27:00;;;;;;;;;;;;;;;;;;5008392;28;1284;-47
2022/11/24 06:29:27;;;;;;;;;;;;;;;;;;4993294;28;1243;-49
2022/11/24 06:31:54;;;;;;;;;;;;;;;;;;4993471;28;1032;-47
2022/11/24 06:34:21;;;;;;;;;;;;;;;;;;4993187;28;1301;-50
2022/11/24 06:36:48;;;;;;;;;;;;;;;;;;4993374;28;1259;-51
2022/11/24 06:39:15;;;;;;;;;;;;;;;;;;4993106;28;1072;-47
2022/11/24 06:41:42;;;;;;;;;;;;;;;;;;4992742;28;1070;-46
2022/11/24 06:44:09;;;;;;;;;;;;;;;;;;4993029;28;1976;-47
2022/11/24 06:46:36;;;;;;;;;;;;;;;;;;4993032;28;1200;-46
2022/11/24 06:49:03;;;;;;;;;;;;;;;;;;4993117;28;1004;-47
2022/11/24 06:51:31;;;;;;;;;;;;;;;;;;4992942;28;1287;-49
2022/11/24 06:53:58;;;;;;;;;;;;;;;;;;4993026;28;1214;-51
2022/11/24 06:56:26;;;;;;;;;;;;;;;;;;4992821;28;1091;-47
2022/11/24 06:58:53;;;;;;;;;;;;;;;;;;4992878;28;893;-46
2022/11/24 07:01:21;;;;;;;;;;;;;;;;;;4992881;28;1068;-47
2022/11/24 07:03:50;;;;;;;;;;;;;;;;;;4992443;28;1973;-52
2022/11/24 07:06:18;;;;;;;;;;;;;;;;;;4992751;28;1226;-53
2022/11/24 07:08:45;;;;;;;;;;;;;;;;;;4992480;28;1009;-43
2022/11/24 07:11:15;;;;;;;;;;;;;;;;;;4992851;28;1064;-48
2022/11/24 07:13:43;;;;;;;;;;;;;;;;;;5007700;28;1419;-49
2022/11/24 07:16:12;;;;;;;;;;;;;;;;;;4992331;28;1103;-50
2022/11/24 07:18:40;;;;;;;;;;;;;;;;;;5002983;28;1187;-46
2022/11/24 07:21:07;;;;;;;;;;;;;;;;;;5012447;28;1228;-46
2022/11/24 07:23:34;;;;;;;;;;;;;;;;;;5011857;28;1297;-47
2022/11/24 07:26:02;;;;;;;;;;;;;;;;;;5011534;28;1975;-50
2022/11/24 07:28:33;;;;;;;;;;;;;;;;;;5011730;28;922;-45
2022/11/24 07:31:04;;;;;;;;;;;;;;;;;;5011920;28;1058;-48
2022/11/24 07:33:31;;;;;;;;;;;;;;;;;;5011773;28;1123;-50
2022/11/24 07:35:58;;;;;;;;;;;;;;;;;;5011910;28;1041;-47
2022/11/24 07:38:25;;;;;;;;;;;;;;;;;;5011700;28;1077;-50
2022/11/24 07:40:53;;;;;;;;;;;;;;;;;;5011809;28;969;-45
2022/11/24 07:43:20;;;;;;;;;;;;;;;;;;5011399;28;1001;-51
2022/11/24 07:45:51;;;;;;;;;;;;;;;;;;5011602;28;1916;-48
2022/11/24 07:48:18;;;;;;;;;;;;;;;;;;5011717;28;1029;-47
2022/11/24 07:50:45;;;;;;;;;;;;;;;;;;5011524;28;1188;-48
2022/11/24 07:53:16;;;;;;;;;;;;;;;;;;5026830;28;1462;-47
2022/11/24 07:55:51;;;;;;;;;;;;;;;;;;5010087;28;1550;-44
2022/11/24 07:58:18;;;;;;;;;;;;;;;;;;5011660;28;1164;-46
2022/11/24 08:00:45;;;;;;;;;;;;;;;;;;5011571;28;1049;-48
2022/11/24 08:03:12;;;;;;;;;;;;;;;;;;5011794;28;1170;-47
2022/11/24 08:05:39;;;;;;;;;;;;;;;;;;5011700;28;1975;-50
2022/11/24 08:08:27;;;;;;;;;;;;;;;;;;5011548;28;1112;-45
2022/11/24 08:10:55;;;;;;;;;;;;;;;;;;5011408;28;1167;-46
2022/11/24 08:13:22;;;;;;;;;;;;;;;;;;5011491;28;1134;-51
2022/11/24 08:15:49;;;;;;;;;;;;;;;;;;5011476;28;1064;-45
2022/11/24 08:18:17;;;;;;;;;;;;;;;;;;5003890;28;1108;-50
2022/11/24 08:20:44;;;;;;;;;;;;;;;;;;4991721;28;1035;-47
2022/11/24 08:23:11;;;;;;;;;;;;;;;;;;4991644;28;1171;-49
2022/11/24 08:25:39;;;;;;;;;;;;;;;;;;4991637;28;2069;-44
2022/11/24 08:28:06;;;;;;;;;;;;;;;;;;4991428;28;1105;-49
2022/11/24 08:30:33;;;;;;;;;;;;;;;;;;4991705;28;946;-46
2022/11/24 08:33:01;;;;;;;;;;;;;;;;;;4991389;28;1129;-46
2022/11/24 08:35:28;;;;;;;;;;;;;;;;;;4991401;28;985;-48
2022/11/24 08:37:56;;;;;;;;;;;;;;;;;;4991706;28;973;-47
2022/11/24 08:40:29;;;;;;;;;;;;;;;;;;4991623;28;1057;-46
2022/11/24 08:42:57;;;;;;;;;;;;;;;;;;4991965;28;1169;-46
2022/11/24 08:45:25;;;;;;;;;;;;;;;;;;4993781;28;1972;-45
2022/11/24 08:47:56;;;;;;;;;;;;;;;;;;4995294;28;977;-49
2022/11/24 08:50:23;;;;;;;;;;;;;;;;;;4995180;28;1145;-48
2022/11/24 08:52:51;;;;;;;;;;;;;;;;;;4995300;28;1310;-49
2022/11/24 08:55:18;;;;;;;;;;;;;;;;;;4995189;28;1009;-48
2022/11/24 08:57:46;;;;;;;;;;;;;;;;;;4995326;28;1055;-48
2022/11/24 09:00:13;;;;;;;;;;;;;;;;;;4995097;28;1026;-47
2022/11/24 09:02:41;;;;;;;;;;;;;;;;;;4995385;28;1075;-48
2022/11/24 09:05:08;;;;;;;;;;;;;;;;;;4994865;28;1977;-49
2022/11/24 09:07:56;;;;;;;;;;;;;;;;;;4994829;28;970;-46
2022/11/24 09:10:23;;;;;;;;;;;;;;;;;;4994823;28;1038;-47
2022/11/24 09:12:50;;;;;;;;;;;;;;;;;;4994667;28;1340;-49
2022/11/24 09:15:19;;;;;;;;;;;;;;;;;;4994918;28;1257;-47
2022/11/24 09:17:46;;;;;;;;;;;;;;;;;;5013235;28;1148;-46
2022/11/24 09:20:13;;;;;;;;;;;;;;;;;;5014084;28;905;-47
2022/11/24 09:22:41;;;;;;;;;;;;;;;;;;5014158;28;1104;-46
2022/11/24 09:25:09;;;;;;;;;;;;;;;;;;5013861;28;1988;-45
2022/11/24 09:27:36;;;;;;;;;;;;;;;;;;5014179;28;1130;-49
2022/11/24 09:30:03;;;;;;;;;;;;;;;;;;5014193;28;1010;-46
2022/11/24 09:32:30;;;;;;;;;;;;;;;;;;5013923;28;1561;-49
2022/11/24 09:34:57;;;;;;;;;;;;;;;;;;5014190;28;1309;-45
2022/11/24 09:37:24;;;;;;;;;;;;;;;;;;5013647;28;1012;-46
2022/11/24 09:39:56;;;;;;;;;;;;;;;;;;4995669;28;1335;-47
2022/11/24 09:42:36;;;;;;;;;;;;;;;;;;4994117;28;1061;-48
2022/11/24 09:45:19;;;;;;;;;;;;;;;;;;4994376;28;1976;-46
2022/11/24 09:48:20;;;;;;;;;;;;;;;;;;4994034;28;965;-46
2022/11/24 09:50:48;;;;;;;;;;;;;;;;;;4994056;28;1088;-44
2022/11/24 09:53:17;;;;;;;;;;;;;;;;;;4994158;28;937;-47
2022/11/24 09:55:49;;;;;;;;;;;;;;;;;;4993554;28;1170;-48
2022/11/24 09:58:32;;;;;;;;;;;;;;;;;;4994092;28;918;-46
2022/11/24 10:01:00;;;;;;;;;;;;;;;;;;4993916;28;1028;-48
2022/11/24 10:03:36;;;;;;;;;;;;;;;;;;4993972;28;966;-47
2022/11/24 10:06:11;;;;;;;;;;;;;;;;;;4993755;28;1985;-46
2022/11/24 10:08:46;;;;;;;;;;;;;;;;;;4993438;28;1938;-48
2022/11/24 10:11:15;;;;;;;;;;;;;;;;;;4993533;28;1293;-50
2022/11/24 10:14:01;;;;;;;;;;;;;;;;;;4992970;28;965;-47
2022/11/24 10:16:46;;;;;;;;;;;;;;;;;;4993757;28;1206;-45
2022/11/24 10:19:21;;;;;;;;;;;;;;;;;;5008451;28;1005;-46
2022/11/24 10:21:57;;;;;;;;;;;;;;;;;;5013079;28;1098;-46
2022/11/24 10:24:53;;;;;;;;;;;;;;;;;;5013050;28;1298;-45
2022/11/24 10:27:40;;;;;;;;;;;;;;;;;;5008722;28;1343;-47
2022/11/24 10:30:12;;;;;;;;;;;;;;;;;;5012974;28;1197;-46
2022/11/24 10:32:43;;;;;;;;;;;;;;;;;;5012833;28;1165;-44
2022/11/24 10:35:16;;;;;;;;;;;;;;;;;;5013065;28;1115;-47
2022/11/24 10:37:53;;;;;;;;;;;;;;;;;;5012913;28;1454;-47
2022/11/24 10:40:24;;;;;;;;;;;;;;;;;;5012741;28;1184;-45
2022/11/24 10:43:11;;;;;;;;;;;;;;;;;;5012866;28;934;-46
2022/11/24 10:45:39;;;;;;;;;;;;;;;;;;5012600;28;1908;-47
2022/11/24 10:48:16;;;;;;;;;;;;;;;;;;5027725;28;974;-45
2022/11/24 10:50:44;;;;;;;;;;;;;;;;;;5012340;28;1089;-45
2022/11/24 10:53:21;;;;;;;;;;;;;;;;;;4998736;28;1175;-45
2022/11/24 10:55:55;;;;;;;;;;;;;;;;;;4992711;28;1151;-46
2022/11/24 10:58:25;;;;;;;;;;;;;;;;;;4992890;28;1040;-49
2022/11/24 11:00:53;;;;;;;;;;;;;;;;;;4992912;28;1176;-46
2022/11/24 11:03:22;;;;;;;;;;;;;;;;;;4992898;28;1012;-46
2022/11/24 11:05:59;;;;;;;;;;;;;;;;;;4992594;28;1914;-45
2022/11/24 11:08:33;;;;;;;;;;;;;;;;;;4992339;28;964;-45
2022/11/24 11:11:12;;;;;;;;;;;;;;;;;;4992557;28;1182;-49
2022/11/24 11:13:50;;;;;;;;;;;;;;;;;;4992524;28;906;-47
2022/11/24 11:16:36;;;;;;;;;;;;;;;;;;4992460;28;1005;-49
2022/11/24 11:19:24;;;;;;;;;;;;;;;;;;5005855;28;1318;-45
2022/11/24 11:22:14;;;;;;;;;;;;;;;;;;5011978;28;986;-46
2022/11/24 11:24:43;;;;;;;;;;;;;;;;;;5011746;28;1114;-46
2022/11/24 11:27:20;;;;;;;;;;;;;;;;;;5011899;28;1049;-50
2022/11/24 11:29:48;;;;;;;;;;;;;;;;;;5011962;28;1217;-47
2022/11/24 11:32:51;;;;;;;;;;;;;;;;;;5011775;28;1354;-46
2022/11/24 11:35:38;;;;;;;;;;;;;;;;;;5011536;28;1433;-46
2022/11/24 11:38:06;;;;;;;;;;;;;;;;;;5010555;28;1568;-44
2022/11/24 11:40:33;;;;;;;;;;;;;;;;;;5011626;28;1351;-47
2022/11/24 11:43:03;;;;;;;;;;;;;;;;;;5011874;28;1106;-46
2022/11/24 11:45:37;;;;;;;;;;;;;;;;;;5011546;28;1974;-44
2022/11/24 11:48:17;;;;;;;;;;;;;;;;;;5026697;28;949;-47
2022/11/24 11:50:58;;;;;;;;;;;;;;;;;;5011516;28;1168;-47
2022/11/24 11:54:06;;;;;;;;;;;;;;;;;;5011726;28;1002;-45
2022/11/24 11:56:43;;;;;;;;;;;;;;;;;;5026555;28;1404;-46
2022/11/24 11:59:29;;;;;;;;;;;;;;;;;;5011404;28;906;-43
2022/11/24 12:02:14;;;;;;;;;;;;;;;;;;5011648;28;1083;-45
2022/11/24 12:04:42;;;;;;;;;;;;;;;;;;5011585;28;1000;-46
2022/11/24 12:07:28;;;;;;;;;;;;;;;;;;5011142;28;1906;-46
2022/11/24 12:10:02;;;;;;;;;;;;;;;;;;5011446;28;914;-45
2022/11/24 12:12:44;;;;;;;;;;;;;;;;;;5011718;28;986;-46
2022/11/24 12:15:11;;;;;;;;;;;;;;;;;;5011256;28;1076;-55
2022/11/24 12:17:46;;;;;;;;;;;;;;;;;;5009087;28;1124;-45
2022/11/24 12:20:19;;;;;;;;;;;;;;;;;;4995397;28;1174;-45
2022/11/24 12:22:49;;;;;;;;;;;;;;;;;;4995802;28;1174;-45
2022/11/24 12:25:44;;;;;;;;;;;;;;;;;;4995667;28;1983;-45
2022/11/24 12:28:31;;;;;;;;;;;;;;;;;;4995473;28;1049;-45
2022/11/24 12:31:12;;;;;;;;;;;;;;;;;;4995894;28;963;-47
2022/11/24 12:33:45;;;;;;;;;;;;;;;;;;4995755;28;1091;-44
2022/11/24 12:36:36;;;;;;;;;;;;;;;;;;4995348;28;966;-45
2022/11/24 12:39:15;;;;;;;;;;;;;;;;;;4995235;28;1100;-45
2022/11/24 12:41:45;;;;;;;;;;;;;;;;;;4995325;28;1021;-44
2022/11/24 12:44:26;;;;;;;;;;;;;;;;;;4995388;28;1353;-47
2022/11/24 12:47:06;;;;;;;;;;;;;;;;;;4995451;28;1918;-47
2022/11/24 12:49:46;;;;;;;;;;;;;;;;;;4995086;28;1134;-45
2022/11/24 12:52:25;;;;;;;;;;;;;;;;;;4995189;28;1061;-46
2022/11/24 12:54:53;;;;;;;;;;;;;;;;;;4995144;28;1337;-45
2022/11/24 12:57:27;;;;;;;;;;;;;;;;;;4995158;28;991;-45
2022/11/24 13:00:23;;;;;;;;;;;;;;;;;;4993802;28;1079;-45
2022/11/24 13:03:02;;;;;;;;;;;;;;;;;;4990337;28;1911;-47
2022/11/24 13:05:49;;;;;;;;;;;;;;;;;;4995105;28;1975;-44
2022/11/24 13:08:17;;;;;;;;;;;;;;;;;;5009365;28;1767;-46
2022/11/24 13:10:44;;;;;;;;;;;;;;;;;;4994741;28;1212;-47
2022/11/24 13:13:28;;;;;;;;;;;;;;;;;;4993914;28;960;-45
2022/11/24 13:15:55;;;;;;;;;;;;;;;;;;4995042;28;966;-47
2022/11/24 13:18:51;;;;;;;;;;;;;;;;;;5005127;28;1693;-45
2022/11/24 13:21:30;;;;;;;;;;;;;;;;;;5014289;28;1090;-47
2022/11/24 13:24:15;;;;;;;;;;;;;;;;;;5014148;28;1213;-45
2022/11/24 13:26:49;;;;;;;;;;;;;;;;;;5013980;28;1906;-44
2022/11/24 13:29:26;;;;;;;;;;;;;;;;;;5014202;28;1121;-46
2022/11/24 13:31:53;;;;;;;;;;;;;;;;;;5013366;28;941;-45
2022/11/24 13:34:42;;;;;;;;;;;;;;;;;;5014122;28;1193;-45
2022/11/24 13:37:19;;;;;;;;;;;;;;;;;;5014151;28;1073;-45
2022/11/24 13:39:57;;;;;;;;;;;;;;;;;;5013656;28;909;-45
2022/11/24 13:42:25;;;;;;;;;;;;;;;;;;5013836;28;1089;-44
2022/11/24 13:45:28;;;;;;;;;;;;;;;;;;5013837;28;1189;-45
2022/11/24 13:47:56;;;;;;;;;;;;;;;;;;5013515;28;1160;-45
2022/11/24 13:50:42;;;;;;;;;;;;;;;;;;5013650;28;1370;-43
2022/11/24 13:53:20;;;;;;;;;;;;;;;;;;5013522;28;1420;-41
2022/11/24 13:55:57;;;;;;;;;;;;;;;;;;5013624;28;1191;-40
2022/11/24 13:58:35;;;;;;;;;;;;;;;;;;5013463;28;1363;-40
2022/11/24 14:01:14;;;;;;;;;;;;;;;;;;5013665;28;1116;-45
2022/11/24 14:04:03;;;;;;;;;;;;;;;;;;4974523;28;1094;-47
2022/11/24 14:06:50;;;;;;;;;;;;;;;;;;4974240;28;1918;-42
2022/11/24 14:09:25;;;;;;;;;;;;;;;;;;4974402;28;1066;-49
2022/11/24 14:12:01;;;;;;;;;;;;;;;;;;4974122;28;1081;-46
2022/11/24 14:14:28;;;;;;;;;;;;;;;;;;4974108;28;1162;-46
2022/11/24 14:17:05;;;;;;;;;;;;;;;;;;4974240;28;931;-45
2022/11/24 14:19:32;;;;;;;;;;;;;;;;;;5008785;28;1137;-47
2022/11/24 14:21:59;;;;;;;;;;;;;;;;;;5013151;28;1015;-45
2022/11/24 14:24:29;;;;;;;;;;;;;;;;;;5012861;28;1120;-44
2022/11/24 14:26:56;;;;;;;;;;;;;;;;;;5012980;28;1904;-45
2022/11/24 14:29:24;;;;;;;;;;;;;;;;;;5012824;28;1068;-45
2022/11/24 14:31:54;;;;;;;;;;;;;;;;;;5012691;28;987;-45
2022/11/24 14:34:23;;;;;;;;;;;;;;;;;;5028113;28;1049;-46
2022/11/24 14:36:50;;;;;;;;;;;;;;;;;;5012676;28;1077;-45
2022/11/24 14:39:19;;;;;;;;;;;;;;;;;;5012773;28;910;-48
2022/11/24 14:41:56;;;;;;;;;;;;;;;;;;5012101;28;1191;-46
2022/11/24 14:44:24;;;;;;;;;;;;;;;;;;5012635;28;1090;-44
2022/11/24 14:47:02;;;;;;;;;;;;;;;;;;5012467;28;1912;-45
2022/11/24 14:49:30;;;;;;;;;;;;;;;;;;5012586;28;1113;-47
2022/11/24 14:52:00;;;;;;;;;;;;;;;;;;5012500;28;1071;-46
2022/11/24 14:54:27;;;;;;;;;;;;;;;;;;5012265;28;1075;-46
2022/11/24 14:57:03;;;;;;;;;;;;;;;;;;5012411;28;1402;-46
2022/11/24 14:59:35;;;;;;;;;;;;;;;;;;5012291;28;1200;-49
2022/11/24 15:02:02;;;;;;;;;;;;;;;;;;5012494;28;1119;-49
2022/11/24 15:04:30;;;;;;;;;;;;;;;;;;5012298;28;1085;-44
2022/11/24 15:07:17;;;;;;;;;;;;;;;;;;5012375;28;1977;-45
2022/11/24 15:09:50;;;;;;;;;;;;;;;;;;5012331;28;1057;-45
2022/11/24 15:12:29;;;;;;;;;;;;;;;;;;5012120;28;1100;-43
2022/11/24 15:15:00;;;;;;;;;;;;;;;;;;5012175;28;910;-46
2022/11/24 15:17:28;;;;;;;;;;;;;;;;;;5023358;28;1107;-44
2022/11/24 15:20:08;;;;;;;;;;;;;;;;;;5012103;28;1051;-42
2022/11/24 15:22:37;;;;;;;;;;;;;;;;;;5027250;28;2348;-44
2022/11/24 15:25:22;;;;;;;;;;;;;;;;;;5011954;28;1261;-43
2022/11/24 15:27:50;;;;;;;;;;;;;;;;;;5011420;28;1915;-44
2022/11/24 15:30:17;;;;;;;;;;;;;;;;;;5012091;28;1206;-47
2022/11/24 15:32:51;;;;;;;;;;;;;;;;;;5020011;28;1183;-44
2022/11/24 15:35:18;;;;;;;;;;;;;;;;;;4992094;28;1011;-47
2022/11/24 15:37:45;;;;;;;;;;;;;;;;;;4992276;28;1071;-46
2022/11/24 15:40:12;;;;;;;;;;;;;;;;;;4991848;28;1086;-44
2022/11/24 15:42:40;;;;;;;;;;;;;;;;;;4992549;28;1162;-45
2022/11/24 15:45:08;;;;;;;;;;;;;;;;;;4992050;28;1168;-47
2022/11/24 15:47:35;;;;;;;;;;;;;;;;;;4991900;28;1970;-45
2022/11/24 15:50:03;;;;;;;;;;;;;;;;;;4991814;28;1281;-45
2022/11/24 15:52:30;;;;;;;;;;;;;;;;;;4992038;28;910;-46
2022/11/24 15:54:57;;;;;;;;;;;;;;;;;;4991471;28;914;-47
2022/11/24 15:57:25;;;;;;;;;;;;;;;;;;4991897;28;950;-47
2022/11/24 15:59:52;;;;;;;;;;;;;;;;;;4991903;28;960;-45
2022/11/24 16:02:20;;;;;;;;;;;;;;;;;;5007001;28;2692;-45
2022/11/24 16:04:48;;;;;;;;;;;;;;;;;;4991953;28;903;-41
2022/11/24 16:07:16;;;;;;;;;;;;;;;;;;4990695;28;1904;-44
2022/11/24 16:09:44;;;;;;;;;;;;;;;;;;4991939;28;1127;-48
2022/11/24 16:12:11;;;;;;;;;;;;;;;;;;4992147;28;1464;-45
2022/11/24 16:14:38;;;;;;;;;;;;;;;;;;4991643;28;1019;-49
2022/11/24 16:17:07;;;;;;;;;;;;;;;;;;4991812;28;1233;-48
2022/11/24 16:19:36;;;;;;;;;;;;;;;;;;5009511;28;1120;-46
2022/11/24 16:22:07;;;;;;;;;;;;;;;;;;5011111;28;982;-47
2022/11/24 16:24:34;;;;;;;;;;;;;;;;;;5011136;28;1353;-45
2022/11/24 16:27:02;;;;;;;;;;;;;;;;;;5011406;28;1898;-49
2022/11/24 16:29:29;;;;;;;;;;;;;;;;;;5011186;28;1011;-47
2022/11/24 16:32:00;;;;;;;;;;;;;;;;;;5011225;28;1136;-48
2022/11/24 16:34:28;;;;;;;;;;;;;;;;;;5011114;28;1417;-47
2022/11/24 16:36:55;;;;;;;;;;;;;;;;;;5011239;28;1012;-45
2022/11/24 16:39:22;;;;;;;;;;;;;;;;;;5011060;28;1047;-48
2022/11/24 16:41:49;;;;;;;;;;;;;;;;;;5011193;28;988;-48
2022/11/24 16:44:16;;;;;;;;;;;;;;;;;;5011063;28;1063;-44
2022/11/24 16:46:43;;;;;;;;;;;;;;;;;;5011237;28;1910;-45
2022/11/24 16:49:11;;;;;;;;;;;;;;;;;;5010805;28;1033;-50
2022/11/24 16:51:38;;;;;;;;;;;;;;;;;;5010971;28;1626;-49
2022/11/24 16:54:05;;;;;;;;;;;;;;;;;;5010977;28;1263;-44
2022/11/24 16:56:32;;;;;;;;;;;;;;;;;;5010950;28;918;-46
2022/11/24 16:59:00;;;;;;;;;;;;;;;;;;5010874;28;1191;-47
2022/11/24 17:01:28;;;;;;;;;;;;;;;;;;5025934;28;1203;-46
2022/11/24 17:03:56;;;;;;;;;;;;;;;;;;5010852;28;1356;-45
2022/11/24 17:06:23;;;;;;;;;;;;;;;;;;5012954;28;1929;-45
2022/11/24 17:08:50;;;;;;;;;;;;;;;;;;5014509;28;1090;-45
2022/11/24 17:11:18;;;;;;;;;;;;;;;;;;5029955;28;1904;-46
2022/11/24 17:13:46;;;;;;;;;;;;;;;;;;5014553;28;902;-48
2022/11/24 17:16:14;;;;;;;;;;;;;;;;;;5014376;28;931;-47
2022/11/24 17:18:42;;;;;;;;;;;;;;;;;;5003488;28;1147;-42
2022/11/24 17:21:11;;;;;;;;;;;;;;;;;;5009795;28;1247;-47
2022/11/24 17:23:38;;;;;;;;;;;;;;;;;;4994611;28;1580;-45
2022/11/24 17:26:07;;;;;;;;;;;;;;;;;;4994529;28;1111;-46
2022/11/24 17:28:34;;;;;;;;;;;;;;;;;;4994257;28;1910;-47
2022/11/24 17:31:08;;;;;;;;;;;;;;;;;;4994543;28;1076;-47
2022/11/24 17:33:35;;;;;;;;;;;;;;;;;;4994428;28;1220;-45
2022/11/24 17:36:06;;;;;;;;;;;;;;;;;;4994439;28;937;-44